Time;durP1;ratioP1;P1;durP2;ratioP2;P2;SDS_P1;SDS_P2;PMS_P1;PMS_P2;Temp;Humidity;BMP_temperature;BMP_pressure;BME280_temperature;BME280_humidity;BME280_pressure;Samples;Min_cycle;Max_cycle;Signal;HPM_P1;HPM_P2
2023/10/05 00:02:21;;;;;;;7.00;3.30;;;;;;;13.36;57.06;101169.38;105284;1257;63692;-55
2023/10/05 00:04:50;;;;;;;7.10;3.10;;;;;;;13.32;57.12;101171.58;105828;1254;59852;-55
2023/10/05 00:07:26;;;;;;;9.90;3.40;;;;;;;13.32;56.88;101161.22;105912;1254;59618;-55
2023/10/05 00:09:56;;;;;;;15.40;3.50;;;;;;;13.35;56.95;101166.67;106503;1257;64148;-55
2023/10/05 00:12:25;;;;;;;8.20;3.20;;;;;;;13.36;56.94;101169.73;105791;1259;60081;-55
2023/10/05 00:17:39;;;;;;;7.50;3.40;;;;;;;13.35;57.06;101172.27;105147;1255;59765;-56
2023/10/05 00:20:33;;;;;;;7.50;3.20;;;;;;;13.34;57.00;101173.59;105225;1254;59545;-55
2023/10/05 00:23:05;;;;;;;7.00;3.50;;;;;;;13.33;57.07;101173.30;105553;1254;64058;-55
2023/10/05 00:25:33;;;;;;;6.60;3.50;;;;;;;13.31;57.13;101169.58;105191;1254;64076;-55
2023/10/05 00:28:05;;;;;;;9.90;3.40;;;;;;;13.28;57.20;101162.60;105667;1259;64281;-55
2023/10/05 00:30:34;;;;;;;8.40;3.60;;;;;;;13.25;57.25;101162.83;105146;1260;59727;-55
2023/10/05 00:33:07;;;;;;;6.80;3.20;;;;;;;13.28;57.31;101166.48;105430;1260;59567;-55
2023/10/05 00:35:37;;;;;;;8.10;3.70;;;;;;;13.32;57.17;101165.27;105463;1255;64117;-55
2023/10/05 00:38:15;;;;;;;9.00;4.30;;;;;;;13.33;57.09;101165.58;105188;1255;61621;-55
2023/10/05 00:40:55;;;;;;;6.10;3.20;;;;;;;13.31;57.12;101165.18;105239;1258;63833;-54
2023/10/05 00:43:25;;;;;;;8.40;3.90;;;;;;;13.30;57.20;101166.33;105304;1260;59755;-55
2023/10/05 00:45:56;;;;;;;10.70;3.40;;;;;;;13.29;57.13;101172.69;105219;1259;59561;-54
2023/10/05 00:48:40;;;;;;;11.10;3.80;;;;;;;13.29;57.10;101177.66;105692;1257;63335;-55
2023/10/05 00:51:23;;;;;;;10.20;4.20;;;;;;;13.27;57.15;101175.52;105243;1254;61353;-53
2023/10/05 00:53:51;;;;;;;7.80;4.10;;;;;;;13.24;57.16;101174.52;105763;1258;62537;-54
2023/10/05 00:56:22;;;;;;;9.30;3.60;;;;;;;13.20;57.31;101173.55;105920;1257;59862;-54
2023/10/05 00:59:04;;;;;;;8.20;3.30;;;;;;;13.23;57.18;101176.56;105842;1255;59797;-55
2023/10/05 01:01:54;;;;;;;7.10;3.40;;;;;;;13.26;57.24;101176.13;105511;1260;64098;-54
2023/10/05 01:07:18;;;;;;;8.10;3.20;;;;;;;13.27;57.36;101179.23;106163;1260;62594;-54
2023/10/05 01:14:53;;;;;;;7.60;3.60;;;;;;;13.32;57.09;101180.29;105223;1256;64104;-55
2023/10/05 01:17:25;;;;;;;6.20;3.70;;;;;;;13.30;57.11;101179.33;105179;1261;61349;-56
2023/10/05 01:19:56;;;;;;;7.50;3.90;;;;;;;13.29;57.04;101177.84;105683;1257;63731;-55
2023/10/05 01:22:32;;;;;;;11.60;4.30;;;;;;;13.30;57.14;101182.23;105756;1257;59782;-57
2023/10/05 01:25:02;;;;;;;7.60;3.80;;;;;;;13.31;57.13;101182.45;105694;1256;59625;-55
2023/10/05 01:27:31;;;;;;;6.80;3.60;;;;;;;13.38;57.10;101187.75;105272;1254;64293;-56
2023/10/05 01:29:59;;;;;;;7.30;3.80;;;;;;;13.45;56.83;101188.22;105613;1254;61874;-55
2023/10/05 01:32:27;;;;;;;7.80;3.60;;;;;;;13.47;56.89;101179.58;105602;1254;64289;-55
2023/10/05 01:34:55;;;;;;;10.90;4.00;;;;;;;13.50;56.84;101183.10;105780;1254;59698;-57
2023/10/05 01:37:25;;;;;;;8.30;3.80;;;;;;;13.47;56.75;101189.45;105259;1259;59550;-56
2023/10/05 01:39:53;;;;;;;7.50;3.70;;;;;;;13.43;56.78;101185.77;105801;1254;62916;-56
2023/10/05 01:42:21;;;;;;;9.00;3.60;;;;;;;13.39;56.78;101190.31;105790;1254;61926;-55
2023/10/05 01:44:49;;;;;;;9.00;4.10;;;;;;;13.34;56.88;101193.27;105805;1258;63809;-55
2023/10/05 01:47:17;;;;;;;10.30;4.10;;;;;;;13.28;57.02;101193.61;105994;1253;59671;-59
2023/10/05 01:49:51;;;;;;;8.50;3.90;;;;;;;13.21;57.27;101196.39;105219;1260;59689;-55
2023/10/05 01:52:20;;;;;;;7.30;3.40;;;;;;;13.18;57.30;101199.27;105217;1259;64119;-55
2023/10/05 01:54:48;;;;;;;13.00;3.80;;;;;;;13.17;57.36;101204.06;105896;1258;60263;-55
2023/10/05 01:57:16;;;;;;;8.30;3.60;;;;;;;13.16;57.40;101204.41;105242;1254;63844;-56
2023/10/05 01:59:44;;;;;;;7.30;3.90;;;;;;;13.13;57.66;101204.98;106074;1257;59864;-57
2023/10/05 02:02:15;;;;;;;11.60;4.40;;;;;;;13.07;57.71;101202.77;105240;1254;59160;-56
2023/10/05 02:04:44;;;;;;;9.10;4.50;;;;;;;13.01;57.98;101204.88;105402;1258;64070;-56
2023/10/05 02:07:14;;;;;;;7.00;4.10;;;;;;;12.95;58.04;101204.44;105218;1256;60077;-56
2023/10/05 02:09:42;;;;;;;10.10;4.10;;;;;;;12.89;58.29;101200.30;105431;1258;62461;-56
2023/10/05 02:12:10;;;;;;;6.90;3.80;;;;;;;12.85;58.39;101197.10;105342;1254;61830;-56
2023/10/05 02:14:41;;;;;;;8.10;3.80;;;;;;;12.87;58.43;101201.90;105226;1254;59760;-54
2023/10/05 02:17:09;;;;;;;7.90;3.90;;;;;;;12.88;58.53;101203.70;105329;1253;64058;-54
2023/10/05 02:19:41;;;;;;;9.60;4.30;;;;;;;12.86;58.59;101207.40;105298;1260;60285;-55
2023/10/05 02:22:11;;;;;;;9.10;3.90;;;;;;;12.83;58.70;101209.02;105328;1255;62659;-55
2023/10/05 02:24:42;;;;;;;8.70;3.70;;;;;;;12.79;58.74;101210.76;105203;1259;59651;-54
2023/10/05 02:27:11;;;;;;;9.10;4.90;;;;;;;12.76;58.90;101211.88;105310;1254;59658;-54
2023/10/05 02:29:40;;;;;;;9.60;4.40;;;;;;;12.71;59.04;101215.20;105160;1254;64158;-54
2023/10/05 02:32:11;;;;;;;8.60;4.60;;;;;;;12.66;59.22;101217.89;105400;1259;61539;-54
2023/10/05 02:34:44;;;;;;;7.30;4.00;;;;;;;12.65;59.34;101226.59;105390;1258;63757;-55
2023/10/05 02:37:13;;;;;;;8.70;4.20;;;;;;;12.68;59.38;101222.70;105415;1254;60615;-55
2023/10/05 02:39:41;;;;;;;9.70;4.60;;;;;;;12.68;59.39;101216.38;105363;1259;60447;-54
2023/10/05 02:42:12;;;;;;;9.30;4.20;;;;;;;12.66;59.47;101219.80;105211;1254;64962;-54
2023/10/05 02:44:43;;;;;;;9.30;5.10;;;;;;;12.64;59.55;101223.63;105234;1253;61374;-54
2023/10/05 02:47:16;;;;;;;8.00;4.90;;;;;;;12.61;59.55;101225.83;105259;1261;62428;-55
2023/10/05 02:49:44;;;;;;;8.30;4.60;;;;;;;12.57;59.71;101227.02;105323;1257;60582;-55
2023/10/05 02:52:16;;;;;;;11.80;4.90;;;;;;;12.53;59.88;101228.05;105257;1258;60361;-55
2023/10/05 02:54:48;;;;;;;8.90;4.40;;;;;;;12.53;60.02;101226.98;105275;1254;64937;-55
2023/10/05 02:57:16;;;;;;;6.70;1.70;;;;;;;12.56;59.93;101225.67;105120;1254;61461;-55
2023/10/05 02:59:44;;;;;;;7.60;4.20;;;;;;;12.56;59.97;101223.05;106761;1254;62447;-55
2023/10/05 03:02:16;;;;;;;9.20;4.50;;;;;;;12.55;60.10;101218.88;105368;1254;60579;-55
2023/10/05 03:04:45;;;;;;;7.70;4.50;;;;;;;12.55;60.02;101221.89;105359;1257;60520;-55
2023/10/05 03:07:19;;;;;;;11.80;4.90;;;;;;;12.53;60.08;101223.45;105234;1258;64951;-55
2023/10/05 03:09:51;;;;;;;11.90;4.90;;;;;;;12.64;59.75;101215.77;105951;1254;61343;-55
2023/10/05 03:12:20;;;;;;;8.20;4.70;;;;;;;12.51;59.96;101216.70;105897;1257;63700;-54
2023/10/05 03:14:51;;;;;;;8.70;4.30;;;;;;;12.44;60.11;101220.20;105864;1257;60485;-55
2023/10/05 03:17:20;;;;;;;9.20;4.30;;;;;;;12.45;60.14;101215.77;105199;1254;60582;-56
2023/10/05 03:19:50;;;;;;;9.70;5.10;;;;;;;12.44;60.21;101214.25;105930;1254;65537;-55
2023/10/05 03:22:18;;;;;;;10.10;5.00;;;;;;;12.40;60.37;101218.58;105842;1253;61922;-55
2023/10/05 03:24:47;;;;;;;6.60;2.30;;;;;;;12.34;60.44;101217.42;105929;1256;63675;-55
2023/10/05 03:27:16;;;;;;;10.10;5.10;;;;;;;12.28;60.51;101215.97;105108;1256;60427;-55
2023/10/05 03:29:46;;;;;;;9.10;5.20;;;;;;;12.23;60.73;101216.00;105177;1254;61655;-54
2023/10/05 03:32:19;;;;;;;9.30;4.80;;;;;;;12.16;61.02;101218.05;105399;1254;64972;-54
2023/10/05 03:34:55;;;;;;;7.50;4.40;;;;;;;12.14;61.13;101222.59;105219;1259;60383;-54
2023/10/05 03:37:24;;;;;;;4.90;1.70;;;;;;;12.14;61.26;101223.14;105892;1254;63892;-54
2023/10/05 03:40:07;;;;;;;9.00;5.00;;;;;;;12.13;61.38;101218.85;106585;1258;60502;-54
2023/10/05 03:42:34;;;;;;;10.50;5.60;;;;;;;12.09;61.53;101227.92;105342;1259;60550;-54
2023/10/05 03:45:09;;;;;;;11.50;5.30;;;;;;;12.04;61.75;101231.21;105517;1256;64954;-54
2023/10/05 03:47:37;;;;;;;6.70;2.50;;;;;;;11.99;61.87;101234.27;105518;1254;61495;-54
2023/10/05 03:50:08;;;;;;;9.50;5.10;;;;;;;11.94;62.00;101233.59;105260;1255;63754;-54
2023/10/05 03:52:36;;;;;;;9.50;4.90;;;;;;;11.90;62.01;101233.66;105327;1256;60565;-55
2023/10/05 03:55:05;;;;;;;9.80;5.00;;;;;;;11.90;62.08;101225.89;105268;1253;60593;-55
2023/10/05 03:57:33;;;;;;;9.50;4.40;;;;;;;11.93;62.00;101227.63;105557;1253;64948;-55
2023/10/05 04:00:16;;;;;;;8.70;4.70;;;;;;;11.96;62.16;101230.77;105610;1253;61380;-54
2023/10/05 04:02:46;;;;;;;10.00;5.00;;;;;;;11.99;62.13;101234.45;105150;1260;63719;-54
2023/10/05 04:05:18;;;;;;;8.90;5.20;;;;;;;11.99;62.07;101232.29;105389;1254;61412;-54
2023/10/05 04:07:51;;;;;;;12.50;5.10;;;;;;;11.99;62.10;101230.42;105168;1254;60454;-54
2023/10/05 04:10:38;;;;;;;11.50;5.30;;;;;;;11.98;62.09;101234.66;105964;1253;64952;-55
2023/10/05 04:13:05;;;;;;;7.40;2.60;;;;;;;11.96;62.05;101240.98;105520;1254;61846;-54
2023/10/05 04:15:33;;;;;;;8.40;4.30;;;;;;;11.95;62.05;101244.73;105377;1256;63727;-54
2023/10/05 04:18:01;;;;;;;8.90;4.60;;;;;;;12.00;62.03;101245.99;105231;1253;60448;-54
2023/10/05 04:20:29;;;;;;;7.80;4.40;;;;;;;12.05;61.98;101245.60;107275;1255;61006;-55
2023/10/05 04:22:56;;;;;;;4.60;2.40;;;;;;;12.07;61.82;101244.56;105654;1255;74154;-55
2023/10/05 04:25:24;;;;;;;10.80;5.20;;;;;;;12.07;61.69;101250.58;105849;1253;63916;-54
2023/10/05 04:27:52;;;;;;;9.80;5.40;;;;;;;12.03;61.56;101256.28;105309;1254;62593;-54
2023/10/05 04:30:21;;;;;;;9.40;5.30;;;;;;;12.00;61.65;101259.84;105633;1254;60537;-55
2023/10/05 04:32:49;;;;;;;13.50;5.10;;;;;;;11.99;61.70;101257.84;105852;1258;60393;-55
2023/10/05 04:35:26;;;;;;;5.10;1.70;;;;;;;12.01;61.82;101255.16;105237;1253;65027;-55
2023/10/05 04:37:54;;;;;;;7.40;4.30;;;;;;;12.05;61.80;101257.20;105780;1253;61606;-54
2023/10/05 04:40:25;;;;;;;9.10;5.10;;;;;;;12.10;61.84;101260.91;105735;1254;63737;-54
2023/10/05 04:42:58;;;;;;;11.20;5.30;;;;;;;12.15;61.91;101263.40;105847;1255;60585;-54
2023/10/05 04:45:27;;;;;;;10.50;5.20;;;;;;;12.16;61.80;101269.09;105749;1256;60472;-65
2023/10/05 04:47:58;;;;;;;8.90;5.70;;;;;;;12.15;61.75;101274.77;105762;1254;65035;-63
2023/10/05 04:50:27;;;;;;;9.30;5.00;;;;;;;12.13;61.68;101277.44;105695;1255;61352;-65
2023/10/05 04:52:55;;;;;;;8.00;2.50;;;;;;;12.07;61.87;101278.70;105297;1259;62634;-65
2023/10/05 04:55:31;;;;;;;10.10;5.40;;;;;;;12.02;61.92;101282.38;105247;1253;60528;-65
2023/10/05 05:03:32;;;;;;;8.50;4.70;;;;;;;12.10;62.00;101283.25;105304;1253;62079;-65
2023/10/05 05:08:38;;;;;;;12.80;5.30;;;;;;;12.20;62.01;101280.23;105271;1256;61160;-65
2023/10/05 05:11:11;;;;;;;13.40;5.10;;;;;;;12.21;61.91;101281.90;105446;1254;60386;-66
2023/10/05 05:13:39;;;;;;;10.20;5.00;;;;;;;12.18;61.85;101281.95;105314;1254;64947;-65
2023/10/05 05:16:08;;;;;;;9.10;5.80;;;;;;;12.14;61.98;101283.68;105418;1258;60513;-65
2023/10/05 05:18:38;;;;;;;10.40;4.80;;;;;;;12.13;62.13;101286.77;105166;1254;74783;-65
2023/10/05 05:21:07;;;;;;;11.90;5.40;;;;;;;12.21;62.09;101285.11;105362;1253;59629;-65
2023/10/05 05:23:35;;;;;;;12.80;6.20;;;;;;;12.29;62.00;101283.09;105439;1258;60406;-65
2023/10/05 05:26:09;;;;;;;13.90;5.60;;;;;;;12.37;62.01;101284.43;105548;1256;66976;-65
2023/10/05 05:28:37;;;;;;;10.70;5.70;;;;;;;12.46;61.77;101285.52;105380;1260;72653;-66
2023/10/05 05:31:14;;;;;;;14.80;5.30;;;;;;;12.49;61.46;101290.96;105397;1254;62567;-66
2023/10/05 05:33:44;;;;;;;8.60;2.30;;;;;;;12.47;61.46;101288.82;105377;1259;60522;-53
2023/10/05 05:36:13;;;;;;;11.60;5.10;;;;;;;12.44;61.70;101287.99;105288;1259;60451;-55
2023/10/05 05:38:40;;;;;;;15.80;6.20;;;;;;;12.42;61.76;101291.65;106116;1254;63722;-55
2023/10/05 05:45:15;;;;;;;7.10;2.00;;;;;;;12.52;62.13;101286.20;104661;1282;601749;-90
2023/10/05 05:47:47;;;;;;;12.80;5.20;;;;;;;12.71;61.66;101283.89;106125;1269;59290;-88
2023/10/05 05:50:17;;;;;;;13.40;5.30;;;;;;;12.75;61.36;101289.24;106341;1265;58698;-90
2023/10/05 05:52:47;;;;;;;11.10;5.40;;;;;;;12.74;61.33;101288.22;106191;1264;65237;-93
2023/10/05 05:55:22;;;;;;;10.70;5.00;;;;;;;12.75;61.37;101291.13;106126;1257;63574;-90
2023/10/05 05:57:53;;;;;;;9.80;4.80;;;;;;;12.82;61.49;101291.47;105880;1262;275427;-92
2023/10/05 06:00:24;;;;;;;11.30;5.70;;;;;;;12.92;61.41;101292.17;106482;1263;59157;-90
2023/10/05 06:02:53;;;;;;;9.70;5.30;;;;;;;12.99;61.47;101281.27;106321;1254;61521;-90
2023/10/05 06:05:27;;;;;;;11.10;4.90;;;;;;;13.06;61.35;101280.02;106417;1253;74705;-90
2023/10/05 06:07:57;;;;;;;10.00;5.50;;;;;;;13.13;61.27;101284.92;106446;1253;70120;-94
2023/10/05 06:10:35;;;;;;;12.10;5.30;;;;;;;13.18;61.14;101286.13;108078;1254;65980;-96
2023/10/05 06:13:49;;;;;;;;;;;;;;;;;;;;;
2023/10/05 06:16:20;;;;;;;9.10;4.30;;;;;;;13.40;60.86;101292.81;106461;1260;59635;-94
2023/10/05 06:18:54;;;;;;;7.90;4.50;;;;;;;13.53;60.74;101295.27;106809;1255;64655;-96
2023/10/05 06:21:25;;;;;;;8.80;4.80;;;;;;;13.65;60.35;101300.70;106655;1257;63453;-91
2023/10/05 06:24:02;;;;;;;13.20;5.70;;;;;;;13.71;60.00;101298.96;106666;1253;66273;-95
2023/10/05 06:26:32;;;;;;;10.20;5.40;;;;;;;13.75;60.00;101303.30;108380;1254;59682;-91
2023/10/05 06:29:05;;;;;;;9.50;5.00;;;;;;;13.80;59.94;101306.95;109082;1253;61650;-93
2023/10/05 06:31:43;;;;;;;10.30;4.90;;;;;;;13.86;59.90;101305.02;107313;1253;65973;-96
2023/10/05 06:34:22;;;;;;;;;;;;;;;13.98;59.71;101307.61;108100;1254;62774;-92
2023/10/05 06:36:52;;;;;;;9.30;4.70;;;;;;;14.11;59.51;101310.85;105981;1253;75115;-59
2023/10/05 06:39:20;;;;;;;10.90;4.80;;;;;;;14.21;59.26;101310.59;105406;1254;59714;-64
2023/10/05 06:41:54;;;;;;;10.20;4.80;;;;;;;14.28;58.97;101309.80;105378;1257;60438;-60
2023/10/05 06:44:23;;;;;;;9.70;5.10;;;;;;;14.33;58.85;101307.83;105919;1253;62991;-64
2023/10/05 06:46:53;;;;;;;9.10;5.50;;;;;;;14.36;58.88;101310.47;105419;1256;60386;-66
2023/10/05 06:49:22;;;;;;;9.50;5.30;;;;;;;14.36;58.67;101313.95;105368;1254;62587;-70
2023/10/05 06:51:50;;;;;;;10.30;5.70;;;;;;;14.37;58.58;101312.70;106070;1253;59608;-66
2023/10/05 06:54:18;;;;;;;9.40;5.40;;;;;;;14.38;58.60;101310.06;105335;1254;59779;-63
2023/10/05 06:56:49;;;;;;;11.40;5.00;;;;;;;14.48;58.61;101312.46;105382;1253;64307;-62
2023/10/05 06:59:20;;;;;;;10.80;5.40;;;;;;;14.57;58.54;101313.46;105317;1257;63762;-63
2023/10/05 07:01:49;;;;;;;9.70;4.50;;;;;;;14.64;58.34;101317.30;106745;1256;73660;-63
2023/10/05 07:04:20;;;;;;;11.90;5.00;;;;;;;14.69;58.60;101312.88;105353;1253;59960;-63
2023/10/05 07:06:50;;;;;;;9.50;5.30;;;;;;;14.77;58.45;101309.79;105420;1253;61385;-63
2023/10/05 07:09:17;;;;;;;10.60;5.20;;;;;;;14.81;58.27;101308.66;105380;1254;63006;-61
2023/10/05 07:11:45;;;;;;;9.00;4.70;;;;;;;14.87;58.23;101311.25;105313;1257;60344;-60
2023/10/05 07:14:13;;;;;;;13.00;5.40;;;;;;;14.95;58.12;101312.13;105304;1258;62542;-61
2023/10/05 07:16:41;;;;;;;19.00;5.60;;;;;;;15.06;57.92;101317.25;105320;1258;59735;-61
2023/10/05 07:19:09;;;;;;;11.70;5.20;;;;;;;15.14;57.67;101317.56;105186;1257;59635;-61
2023/10/05 07:21:38;;;;;;;11.00;5.20;;;;;;;15.22;57.32;101312.55;105305;1253;64860;-63
2023/10/05 07:24:07;;;;;;;13.30;5.50;;;;;;;15.27;57.27;101315.42;105584;1255;60440;-62
2023/10/05 07:26:34;;;;;;;13.80;5.20;;;;;;;15.30;57.17;101315.89;105312;1257;62547;-60
2023/10/05 07:29:04;;;;;;;10.00;5.40;;;;;;;15.31;57.19;101321.64;105650;1253;62298;-59
2023/10/05 07:31:50;;;;;;;14.60;5.80;;;;;;;15.33;57.01;101318.70;105229;1256;59821;-61
2023/10/05 07:34:18;;;;;;;13.10;5.30;;;;;;;15.37;56.93;101317.80;105270;1258;64543;-59
2023/10/05 07:36:46;;;;;;;14.20;5.10;;;;;;;15.43;56.78;101317.44;105345;1254;60332;-67
2023/10/05 07:39:14;;;;;;;16.00;5.30;;;;;;;15.47;56.65;101312.48;105335;1254;62544;-61
2023/10/05 07:41:44;;;;;;;14.00;5.60;;;;;;;15.50;56.70;101311.22;105467;1257;62220;-65
2023/10/05 07:44:12;;;;;;;11.00;5.20;;;;;;;15.54;56.55;101304.98;105096;1253;61454;-65
2023/10/05 07:46:43;;;;;;;11.40;4.60;;;;;;;15.61;56.52;101303.20;105482;1254;71668;-55
2023/10/05 07:49:10;;;;;;;13.40;5.10;;;;;;;15.66;56.60;101303.30;105366;1254;71011;-58
2023/10/05 07:51:38;;;;;;;11.00;4.80;;;;;;;15.71;56.31;101299.66;105516;1254;62690;-59
2023/10/05 07:54:06;;;;;;;10.10;5.20;;;;;;;15.80;56.19;101296.93;105287;1253;59680;-68
2023/10/05 07:56:35;;;;;;;11.20;4.90;;;;;;;15.91;56.03;101289.42;105724;1253;59636;-63
2023/10/05 07:59:04;;;;;;;9.50;5.40;;;;;;;16.00;55.86;101291.88;105627;1256;64171;-61
2023/10/05 08:01:32;;;;;;;11.40;5.20;;;;;;;16.07;55.74;101289.08;105832;1253;62390;-58
2023/10/05 08:03:59;;;;;;;9.30;4.90;;;;;;;16.16;55.50;101289.02;105308;1253;62550;-62
2023/10/05 08:06:27;;;;;;;12.30;5.00;;;;;;;16.23;55.30;101285.02;105807;1254;59657;-66
2023/10/05 08:08:55;;;;;;;12.60;5.00;;;;;;;16.30;55.14;101286.90;105299;1259;62107;-60
2023/10/05 08:11:23;;;;;;;10.70;4.50;;;;;;;16.37;55.31;101285.93;105300;1253;62975;-64
2023/10/05 08:13:52;;;;;;;7.80;4.60;;;;;;;16.46;55.20;101283.53;105191;1257;71391;-60
2023/10/05 08:16:19;;;;;;;12.10;4.60;;;;;;;16.55;54.77;101278.29;105188;1253;73847;-59
2023/10/05 08:18:48;;;;;;;9.40;4.20;;;;;;;16.65;54.21;101275.25;105217;1254;62184;-59
2023/10/05 08:21:17;;;;;;;10.00;4.30;;;;;;;16.71;53.66;101275.92;105261;1257;59638;-61
2023/10/05 08:23:44;;;;;;;10.10;4.30;;;;;;;16.74;53.08;101269.60;105254;1256;62898;-58
2023/10/05 08:26:12;;;;;;;7.00;4.00;;;;;;;16.76;53.17;101267.80;107920;1257;62544;-64
2023/10/05 08:28:40;;;;;;;8.80;4.70;;;;;;;16.79;53.05;101266.66;105303;1256;62761;-71
2023/10/05 08:31:09;;;;;;;10.00;4.70;;;;;;;16.84;53.23;101262.27;105149;1258;59754;-62
2023/10/05 08:33:40;;;;;;;10.30;4.90;;;;;;;16.96;53.23;101261.95;105049;1253;59738;-63
2023/10/05 08:36:12;;;;;;;10.40;4.80;;;;;;;17.09;52.25;101274.86;105175;1257;63038;-62
2023/10/05 08:38:40;;;;;;;9.40;4.60;;;;;;;17.15;51.59;101264.77;105637;1258;60471;-61
2023/10/05 08:41:11;;;;;;;13.60;4.20;;;;;;;17.19;51.75;101258.90;105120;1255;63909;-60
2023/10/05 08:43:39;;;;;;;9.80;4.40;;;;;;;17.25;51.22;101257.23;106274;1255;59688;-64
2023/10/05 08:46:14;;;;;;;9.80;4.30;;;;;;;17.30;51.03;101259.83;105358;1253;59540;-66
2023/10/05 08:48:42;;;;;;;11.90;4.30;;;;;;;17.32;50.85;101258.23;109143;1256;64383;-67
2023/10/05 08:51:13;;;;;;;9.70;4.50;;;;;;;17.36;51.08;101255.20;109194;1253;60458;-67
2023/10/05 08:53:44;;;;;;;11.10;4.40;;;;;;;17.42;50.66;101256.75;109173;1253;64486;-62
2023/10/05 08:56:15;;;;;;;9.00;4.30;;;;;;;17.49;50.36;101247.70;108746;1254;59725;-67
2023/10/05 08:58:48;;;;;;;14.10;4.30;;;;;;;17.58;50.13;101246.17;105258;1260;59656;-58
2023/10/05 09:01:35;;;;;;;9.60;3.80;;;;;;;17.65;50.14;101243.02;105421;1253;74463;-69
2023/10/05 09:06:48;;;;;;;8.40;4.30;;;;;;;17.74;48.99;101249.73;105521;1257;64863;-59
2023/10/05 09:09:19;;;;;;;9.30;3.50;;;;;;;17.73;48.92;101243.44;105157;1258;59648;-66
2023/10/05 09:11:47;;;;;;;8.20;4.10;;;;;;;17.75;49.21;101235.47;105321;1253;59723;-65
2023/10/05 09:14:18;;;;;;;7.60;4.20;;;;;;;17.81;49.08;101234.70;105086;1257;73562;-62
2023/10/05 09:16:58;;;;;;;11.60;4.10;;;;;;;17.86;49.43;101231.39;105914;1253;61917;-62
2023/10/05 09:19:27;;;;;;;8.20;4.10;;;;;;;17.95;48.92;101233.20;105230;1254;64071;-64
2023/10/05 09:24:29;;;;;;;8.70;3.90;;;;;;;18.10;48.56;101230.64;105431;1253;59817;-70
2023/10/05 09:27:17;;;;;;;9.60;4.30;;;;;;;18.18;48.59;101227.20;105860;1253;63045;-66
2023/10/05 09:29:45;;;;;;;8.30;4.20;;;;;;;18.29;48.27;101221.19;105203;1253;61639;-63
2023/10/05 09:32:25;;;;;;;9.80;4.50;;;;;;;18.34;48.10;101218.65;105439;1258;62803;-62
2023/10/05 09:34:56;;;;;;;7.40;3.50;;;;;;;18.38;47.77;101219.52;105873;1256;60271;-70
2023/10/05 09:37:27;;;;;;;9.90;4.40;;;;;;;18.41;47.72;101224.95;106051;1254;59676;-66
2023/10/05 09:39:59;;;;;;;6.90;3.20;;;;;;;18.41;47.06;101225.13;105181;1259;65084;-69
2023/10/05 09:42:27;;;;;;;8.00;3.70;;;;;;;18.40;47.05;101218.33;105847;1258;60518;-66
2023/10/05 09:44:59;;;;;;;11.10;4.20;;;;;;;18.39;47.18;101216.95;105233;1258;62612;-65
2023/10/05 09:47:33;;;;;;;6.20;2.90;;;;;;;18.40;46.80;101223.13;105818;1253;62277;-60
2023/10/05 09:50:09;;;;;;;9.20;3.90;;;;;;;18.39;46.88;101215.55;105136;1253;59744;-65
2023/10/05 09:52:43;;;;;;;7.60;3.70;;;;;;;18.42;47.13;101211.74;105590;1253;66500;-65
2023/10/05 09:55:13;;;;;;;9.70;3.80;;;;;;;18.47;46.81;101206.27;105394;1256;73061;-64
2023/10/05 09:57:51;;;;;;;7.50;3.70;;;;;;;18.51;46.83;101204.95;105296;1258;63914;-67
2023/10/05 10:02:58;;;;;;;9.90;3.30;;;;;;;18.55;46.96;101200.08;105284;1253;60703;-64
2023/10/05 10:05:35;;;;;;;11.70;4.10;;;;;;;18.56;46.65;101200.33;105847;1258;65537;-62
2023/10/05 10:08:13;;;;;;;7.70;3.70;;;;;;;18.55;46.66;101197.04;105722;1258;60423;-60
2023/10/05 10:10:51;;;;;;;9.20;3.20;;;;;;;18.56;46.72;101198.17;105571;1259;64081;-67
2023/10/05 10:13:22;;;;;;;9.50;3.60;;;;;;;18.61;45.64;101201.27;105274;1253;60571;-63
2023/10/05 10:15:56;;;;;;;11.00;3.50;;;;;;;18.65;45.38;101198.77;105254;1253;60472;-65
2023/10/05 10:18:37;;;;;;;7.50;3.80;;;;;;;18.67;44.78;101198.86;105775;1261;65616;-64
2023/10/05 10:21:12;;;;;;;9.00;3.90;;;;;;;18.70;45.04;101198.73;105571;1256;72617;-65
2023/10/05 10:23:44;;;;;;;7.80;3.50;;;;;;;18.74;44.95;101191.64;105470;1257;62695;-68
2023/10/05 10:26:20;;;;;;;9.40;3.50;;;;;;;18.77;45.16;101187.41;106184;1260;60998;-61
2023/10/05 10:31:42;;;;;;;7.90;3.30;;;;;;;18.91;44.76;101184.77;105285;1259;65956;-63
2023/10/05 10:34:19;;;;;;;8.10;3.70;;;;;;;18.97;44.29;101177.80;105282;1258;60924;-63
2023/10/05 10:36:52;;;;;;;8.40;3.10;;;;;;;18.99;43.75;101178.11;105280;1253;64312;-61
2023/10/05 10:39:23;;;;;;;8.50;3.40;;;;;;;19.01;43.82;101177.55;105162;1259;60574;-61
2023/10/05 10:42:01;;;;;;;9.50;3.90;;;;;;;19.02;43.75;101176.50;105271;1254;60555;-60
2023/10/05 10:44:28;;;;;;;8.50;3.70;;;;;;;19.03;43.57;101171.10;105697;1258;65240;-63
2023/10/05 10:47:10;;;;;;;6.70;3.00;;;;;;;19.05;43.87;101169.64;105226;1253;72564;-64
2023/10/05 10:49:40;;;;;;;8.10;3.60;;;;;;;19.11;43.92;101157.45;105243;1256;64480;-59
2023/10/05 10:52:10;;;;;;;8.50;3.60;;;;;;;19.20;43.71;101153.15;105657;1259;60393;-62
2023/10/05 10:54:46;;;;;;;10.20;3.30;;;;;;;19.29;43.26;101152.67;106149;1258;62468;-64
2023/10/05 10:57:21;;;;;;;10.10;2.80;;;;;;;19.37;43.39;101149.16;105373;1253;66882;-61
2023/10/05 11:00:37;;;;;;;;;;;;;;;19.50;43.46;101149.46;105982;1256;61851;-65
2023/10/05 11:02:40;;;;;;;10.00;3.40;;;;;;;19.63;43.25;101147.90;105166;1258;62532;-67
2023/10/05 11:05:16;;;;;;;9.60;3.20;;;;;;;19.72;43.12;101147.34;105401;1259;60559;-63
2023/10/05 11:07:44;;;;;;;7.90;3.30;;;;;;;19.76;43.05;101149.19;105365;1256;60624;-63
2023/10/05 11:10:19;;;;;;;8.20;3.40;;;;;;;19.74;42.07;101149.54;105576;1253;63789;-57
2023/10/05 11:12:54;;;;;;;10.70;3.10;;;;;;;19.68;42.18;101134.00;105389;1257;72670;-62
2023/10/05 11:15:28;;;;;;;10.30;3.40;;;;;;;19.71;41.93;101130.15;105303;1257;62609;-62
2023/10/05 11:17:59;;;;;;;7.40;3.30;;;;;;;19.77;41.87;101128.09;105607;1259;61442;-62
2023/10/05 11:20:33;;;;;;;12.10;3.30;;;;;;;19.79;41.22;101126.64;105676;1258;60487;-62
2023/10/05 11:23:03;;;;;;;9.00;3.10;;;;;;;19.80;41.23;101127.44;105765;1253;65027;-62
2023/10/05 11:25:44;;;;;;;8.00;3.60;;;;;;;19.84;41.24;101125.90;105547;1253;61811;-60
2023/10/05 11:28:25;;;;;;;7.60;3.10;;;;;;;19.89;40.96;101118.13;105225;1259;62588;-58
2023/10/05 11:30:53;;;;;;;8.00;3.50;;;;;;;19.94;41.14;101118.60;105272;1257;61025;-58
2023/10/05 11:33:41;;;;;;;8.90;3.10;;;;;;;20.02;40.86;101114.69;105236;1253;60536;-62
2023/10/05 11:36:28;;;;;;;8.00;3.10;;;;;;;20.09;40.31;101108.25;105225;1253;67892;-62
2023/10/05 11:38:59;;;;;;;8.00;3.70;;;;;;;20.15;40.42;101107.67;105788;1261;60433;-66
2023/10/05 11:41:32;;;;;;;9.60;3.50;;;;;;;20.19;40.48;101103.77;105749;1256;63860;-61
2023/10/05 11:44:00;;;;;;;7.70;3.40;;;;;;;20.23;40.33;101110.48;105216;1259;60549;-57
2023/10/05 11:46:46;;;;;;;10.20;4.00;;;;;;;20.26;39.84;101109.10;105120;1259;64638;-62
2023/10/05 11:49:14;;;;;;;6.40;3.10;;;;;;;20.27;39.75;101105.66;105418;1253;65310;-58
2023/10/05 11:51:42;;;;;;;8.60;3.70;;;;;;;20.29;40.12;101103.32;105181;1259;62426;-57
2023/10/05 11:54:11;;;;;;;9.60;3.40;;;;;;;20.36;40.01;101096.45;105282;1253;64206;-61
2023/10/05 11:56:40;;;;;;;7.80;3.20;;;;;;;20.39;40.00;101096.17;105517;1259;60950;-63
2023/10/05 11:59:11;;;;;;;9.50;3.40;;;;;;;20.41;40.27;101094.75;105572;1253;60678;-62
2023/10/05 12:01:42;;;;;;;8.60;3.30;;;;;;;20.40;39.91;101094.84;105318;1258;76027;-59
2023/10/05 12:04:10;;;;;;;9.30;4.00;;;;;;;20.35;39.87;101091.20;107817;1259;60259;-66
2023/10/05 12:06:39;;;;;;;7.20;3.30;;;;;;;20.30;40.12;101081.40;105255;1253;62864;-62
2023/10/05 12:09:07;;;;;;;8.40;4.20;;;;;;;20.30;40.20;101076.23;105541;1259;60393;-65
2023/10/05 12:11:38;;;;;;;10.00;4.70;;;;;;;20.31;40.02;101071.67;105164;1258;60454;-57